Time;durP1;ratioP1;P1;durP2;ratioP2;P2;SDS_P1;SDS_P2;PMS_P1;PMS_P2;Temp;Humidity;BMP_temperature;BMP_pressure;BME280_temperature;BME280_humidity;BME280_pressure;Samples;Min_cycle;Max_cycle;Signal;HPM_P1;HPM_P2
2019/11/08 00:00:53;;;;;;;9.1;7.299999;;;;;;;6.12;84.92871;94137.27;;;;
2019/11/08 00:01:54;;;;;;;9.1;7.299999;;;;;;;6.12;84.92871;94137.27;;;;
2019/11/08 00:02:55;;;;;;;9.1;7.299999;;;;;;;6.12;84.92871;94137.27;;;;
2019/11/08 00:03:56;;;;;;;9.1;7.299999;;;;;;;6.12;84.92871;94137.27;;;;
2019/11/08 00:04:58;;;;;;;9.1;7.299999;;;;;;;6.12;84.92871;94137.27;;;;
2019/11/08 00:05:59;;;;;;;9.1;7.299999;;;;;;;6.12;84.92871;94137.27;;;;
2019/11/08 00:07:00;;;;;;;9.1;7.299999;;;;;;;6.12;84.92871;94137.27;;;;
2019/11/08 00:08:01;;;;;;;9.1;7.299999;;;;;;;6.12;84.92871;94137.27;;;;
2019/11/08 00:09:02;;;;;;;9.1;7.299999;;;;;;;6.12;84.92871;94137.27;;;;
2019/11/08 00:10:04;;;;;;;9.1;7.299999;;;;;;;6.12;84.92871;94137.27;;;;
2019/11/08 00:11:07;;;;;;;8.499999;7.349999;;;;;;;6.12;85.16113;94135;;;;
2019/11/08 00:12:08;;;;;;;8.499999;7.349999;;;;;;;6.12;85.16113;94135;;;;
2019/11/08 00:13:09;;;;;;;8.499999;7.349999;;;;;;;6.12;85.16113;94135;;;;
2019/11/08 00:14:10;;;;;;;8.499999;7.349999;;;;;;;6.12;85.16113;94135;;;;
2019/11/08 00:15:11;;;;;;;8.499999;7.349999;;;;;;;6.12;85.16113;94135;;;;
2019/11/08 00:16:12;;;;;;;8.499999;7.349999;;;;;;;6.12;85.16113;94135;;;;
2019/11/08 00:17:13;;;;;;;8.499999;7.349999;;;;;;;6.12;85.16113;94135;;;;
2019/11/08 00:18:15;;;;;;;8.499999;7.349999;;;;;;;6.12;85.16113;94135;;;;
2019/11/08 00:19:16;;;;;;;8.499999;7.349999;;;;;;;6.12;85.16113;94135;;;;
2019/11/08 00:20:17;;;;;;;8.499999;7.349999;;;;;;;6.12;85.16113;94135;;;;
2019/11/08 00:21:18;;;;;;;9.6;7.5;;;;;;;5.99;85.3252;94135.28;;;;
2019/11/08 00:22:19;;;;;;;9.6;7.5;;;;;;;5.99;85.3252;94135.28;;;;
2019/11/08 00:23:20;;;;;;;9.6;7.5;;;;;;;5.99;85.3252;94135.28;;;;
2019/11/08 00:24:21;;;;;;;9.6;7.5;;;;;;;5.99;85.3252;94135.28;;;;
2019/11/08 00:25:22;;;;;;;9.6;7.5;;;;;;;5.99;85.3252;94135.28;;;;
2019/11/08 00:26:23;;;;;;;9.6;7.5;;;;;;;5.99;85.3252;94135.28;;;;
2019/11/08 00:27:25;;;;;;;9.6;7.5;;;;;;;5.99;85.3252;94135.28;;;;
2019/11/08 00:28:26;;;;;;;9.6;7.5;;;;;;;5.99;85.3252;94135.28;;;;
2019/11/08 00:29:27;;;;;;;9.6;7.5;;;;;;;5.99;85.3252;94135.28;;;;
2019/11/08 00:30:28;;;;;;;9.6;7.5;;;;;;;5.99;85.3252;94135.28;;;;
2019/11/08 00:31:29;;;;;;;9.6;7.5;;;;;;;5.99;85.3252;94135.28;;;;
2019/11/08 00:32:30;;;;;;;9.4;7.5;;;;;;;5.92;85.61621;94114.47;;;;
2019/11/08 00:33:31;;;;;;;9.4;7.5;;;;;;;5.92;85.61621;94114.47;;;;
2019/11/08 00:34:32;;;;;;;9.4;7.5;;;;;;;5.92;85.61621;94114.47;;;;
2019/11/08 00:35:34;;;;;;;9.4;7.5;;;;;;;5.92;85.61621;94114.47;;;;
2019/11/08 00:36:35;;;;;;;9.4;7.5;;;;;;;5.92;85.61621;94114.47;;;;
2019/11/08 00:37:36;;;;;;;9.4;7.5;;;;;;;5.92;85.61621;94114.47;;;;
2019/11/08 00:38:37;;;;;;;9.4;7.5;;;;;;;5.92;85.61621;94114.47;;;;
2019/11/08 00:39:38;;;;;;;9.4;7.5;;;;;;;5.92;85.61621;94114.47;;;;
2019/11/08 00:40:40;;;;;;;9.4;7.5;;;;;;;5.92;85.61621;94114.47;;;;
2019/11/08 00:41:41;;;;;;;9.4;7.5;;;;;;;5.92;85.61621;94114.47;;;;
2019/11/08 00:42:42;;;;;;;9.35;7.450001;;;;;;;5.82;86.04004;94114.65;;;;
2019/11/08 00:43:43;;;;;;;9.35;7.450001;;;;;;;5.82;86.04004;94114.65;;;;
2019/11/08 00:44:46;;;;;;;9.35;7.450001;;;;;;;5.82;86.04004;94114.65;;;;
2019/11/08 00:45:47;;;;;;;9.35;7.450001;;;;;;;5.82;86.04004;94114.65;;;;
2019/11/08 00:46:48;;;;;;;9.35;7.450001;;;;;;;5.82;86.04004;94114.65;;;;
2019/11/08 00:47:49;;;;;;;9.35;7.450001;;;;;;;5.82;86.04004;94114.65;;;;
2019/11/08 00:48:50;;;;;;;9.35;7.450001;;;;;;;5.82;86.04004;94114.65;;;;
2019/11/08 00:49:51;;;;;;;9.35;7.450001;;;;;;;5.82;86.04004;94114.65;;;;
2019/11/08 00:50:52;;;;;;;9.35;7.450001;;;;;;;5.82;86.04004;94114.65;;;;
2019/11/08 00:51:54;;;;;;;9.35;7.450001;;;;;;;5.82;86.04004;94114.65;;;;
2019/11/08 00:52:55;;;;;;;9.35;7.450001;;;;;;;5.82;86.04004;94114.65;;;;
2019/11/08 00:53:56;;;;;;;9.699999;7.699999;;;;;;;5.8;86.45801;94084.2;;;;
2019/11/08 00:54:57;;;;;;;9.699999;7.699999;;;;;;;5.8;86.45801;94084.2;;;;
2019/11/08 00:55:58;;;;;;;9.699999;7.699999;;;;;;;5.8;86.45801;94084.2;;;;
2019/11/08 00:56:59;;;;;;;9.699999;7.699999;;;;;;;5.8;86.45801;94084.2;;;;
2019/11/08 00:58:00;;;;;;;9.699999;7.699999;;;;;;;5.8;86.45801;94084.2;;;;
2019/11/08 00:59:01;;;;;;;9.699999;7.699999;;;;;;;5.8;86.45801;94084.2;;;;
2019/11/08 01:00:03;;;;;;;9.699999;7.699999;;;;;;;5.8;86.45801;94084.2;;;;
2019/11/08 01:01:14;;;;;;;9.699999;7.699999;;;;;;;5.8;86.45801;94084.2;;;;
2019/11/08 01:02:15;;;;;;;9.699999;7.699999;;;;;;;5.8;86.45801;94084.2;;;;
2019/11/08 01:03:17;;;;;;;9.699999;7.699999;;;;;;;5.8;86.45801;94084.2;;;;
2019/11/08 01:04:21;;;;;;;10.3;7.599999;;;;;;;5.65;86.53613;94079.74;;;;
2019/11/08 01:05:22;;;;;;;10.3;7.599999;;;;;;;5.65;86.53613;94079.74;;;;
2019/11/08 01:06:24;;;;;;;10.3;7.599999;;;;;;;5.65;86.53613;94079.74;;;;
2019/11/08 01:07:33;;;;;;;10.3;7.599999;;;;;;;5.65;86.53613;94079.74;;;;
2019/11/08 01:08:44;;;;;;;10.3;7.599999;;;;;;;5.65;86.53613;94079.74;;;;
2019/11/08 01:09:46;;;;;;;10.3;7.599999;;;;;;;5.65;86.53613;94079.74;;;;
2019/11/08 01:10:50;;;;;;;10.3;7.599999;;;;;;;5.65;86.53613;94079.74;;;;
2019/11/08 01:12:01;;;;;;;10.3;7.599999;;;;;;;5.65;86.53613;94079.74;;;;
2019/11/08 01:13:07;;;;;;;10.3;7.599999;;;;;;;5.65;86.53613;94079.74;;;;
2019/11/08 01:14:09;;;;;;;10.3;7.599999;;;;;;;5.65;86.53613;94079.74;;;;
2019/11/08 01:15:15;;;;;;;10.3;7.599999;;;;;;;5.65;86.53613;94079.74;;;;
2019/11/08 01:16:16;;;;;;;10.3;7.599999;;;;;;;5.65;86.53613;94079.74;;;;
2019/11/08 01:17:23;;;;;;;10.3;7.599999;;;;;;;5.65;86.53613;94079.74;;;;
2019/11/08 01:18:24;;;;;;;10.3;7.599999;;;;;;;5.65;86.53613;94079.74;;;;
2019/11/08 01:19:25;;;;;;;10.3;7.599999;;;;;;;5.65;86.53613;94079.74;;;;
2019/11/08 01:20:30;;;;;;;10.3;7.599999;;;;;;;5.65;86.53613;94079.74;;;;
2019/11/08 01:21:31;;;;;;;10.3;7.599999;;;;;;;5.65;86.53613;94079.74;;;;
2019/11/08 01:22:42;;;;;;;10.3;7.599999;;;;;;;5.65;86.53613;94079.74;;;;
2019/11/08 01:23:53;;;;;;;10.3;7.599999;;;;;;;5.65;86.53613;94079.74;;;;
2019/11/08 01:24:55;;;;;;;10.3;7.599999;;;;;;;5.65;86.53613;94079.74;;;;
2019/11/08 01:25:56;;;;;;;9.45;7.95;;;;;;;5.24;86.97754;94083.48;;;;
2019/11/08 01:26:57;;;;;;;9.45;7.95;;;;;;;5.24;86.97754;94083.48;;;;
2019/11/08 01:27:58;;;;;;;9.45;7.95;;;;;;;5.24;86.97754;94083.48;;;;
2019/11/08 01:28:59;;;;;;;9.45;7.95;;;;;;;5.24;86.97754;94083.48;;;;
2019/11/08 01:30:00;;;;;;;9.45;7.95;;;;;;;5.24;86.97754;94083.48;;;;
2019/11/08 01:31:02;;;;;;;9.45;7.95;;;;;;;5.24;86.97754;94083.48;;;;
2019/11/08 01:32:03;;;;;;;9.45;7.95;;;;;;;5.24;86.97754;94083.48;;;;
2019/11/08 01:33:04;;;;;;;9.45;7.95;;;;;;;5.24;86.97754;94083.48;;;;
2019/11/08 01:34:05;;;;;;;9.45;7.95;;;;;;;5.24;86.97754;94083.48;;;;
2019/11/08 01:35:06;;;;;;;9.45;7.95;;;;;;;5.24;86.97754;94083.48;;;;
2019/11/08 01:36:07;;;;;;;11.9;8.249998;;;;;;;5.1;87.49805;94068.2;;;;
2019/11/08 01:37:09;;;;;;;11.9;8.249998;;;;;;;5.1;87.49805;94068.2;;;;
2019/11/08 01:38:11;;;;;;;11.9;8.249998;;;;;;;5.1;87.49805;94068.2;;;;
2019/11/08 01:39:12;;;;;;;11.9;8.249998;;;;;;;5.1;87.49805;94068.2;;;;
2019/11/08 01:40:13;;;;;;;11.9;8.249998;;;;;;;5.1;87.49805;94068.2;;;;
2019/11/08 01:41:14;;;;;;;11.9;8.249998;;;;;;;5.1;87.49805;94068.2;;;;
2019/11/08 01:42:15;;;;;;;11.9;8.249998;;;;;;;5.1;87.49805;94068.2;;;;
2019/11/08 01:43:16;;;;;;;11.9;8.249998;;;;;;;5.1;87.49805;94068.2;;;;
2019/11/08 01:44:17;;;;;;;11.9;8.249998;;;;;;;5.1;87.49805;94068.2;;;;
2019/11/08 01:45:18;;;;;;;11.9;8.249998;;;;;;;5.1;87.49805;94068.2;;;;
2019/11/08 01:46:20;;;;;;;11.9;8.249998;;;;;;;5.1;87.49805;94068.2;;;;
2019/11/08 01:47:21;;;;;;;9.399999;7.7;;;;;;;4.85;87.71973;94060.5;;;;
2019/11/08 01:48:22;;;;;;;9.399999;7.7;;;;;;;4.85;87.71973;94060.5;;;;
2019/11/08 01:49:23;;;;;;;9.399999;7.7;;;;;;;4.85;87.71973;94060.5;;;;
2019/11/08 01:50:24;;;;;;;9.399999;7.7;;;;;;;4.85;87.71973;94060.5;;;;
2019/11/08 01:51:25;;;;;;;9.399999;7.7;;;;;;;4.85;87.71973;94060.5;;;;
2019/11/08 01:52:26;;;;;;;9.399999;7.7;;;;;;;4.85;87.71973;94060.5;;;;
2019/11/08 01:53:27;;;;;;;9.399999;7.7;;;;;;;4.85;87.71973;94060.5;;;;
2019/11/08 01:54:28;;;;;;;9.399999;7.7;;;;;;;4.85;87.71973;94060.5;;;;
2019/11/08 01:55:30;;;;;;;9.399999;7.7;;;;;;;4.85;87.71973;94060.5;;;;
2019/11/08 01:56:50;;;;;;;9.399999;7.7;;;;;;;4.85;87.71973;94060.5;;;;
2019/11/08 01:57:52;;;;;;;9.850001;7.9;;;;;;;4.58;88.17969;94046.85;;;;
2019/11/08 01:58:53;;;;;;;9.850001;7.9;;;;;;;4.58;88.17969;94046.85;;;;
2019/11/08 01:59:54;;;;;;;9.850001;7.9;;;;;;;4.58;88.17969;94046.85;;;;
2019/11/08 02:00:55;;;;;;;9.850001;7.9;;;;;;;4.58;88.17969;94046.85;;;;
2019/11/08 02:01:57;;;;;;;9.850001;7.9;;;;;;;4.58;88.17969;94046.85;;;;
2019/11/08 02:02:58;;;;;;;9.850001;7.9;;;;;;;4.58;88.17969;94046.85;;;;
2019/11/08 02:03:59;;;;;;;9.850001;7.9;;;;;;;4.58;88.17969;94046.85;;;;
2019/11/08 02:05:00;;;;;;;9.850001;7.9;;;;;;;4.58;88.17969;94046.85;;;;
2019/11/08 02:06:02;;;;;;;9.850001;7.9;;;;;;;4.58;88.17969;94046.85;;;;
2019/11/08 02:07:04;;;;;;;9.850001;7.9;;;;;;;4.58;88.17969;94046.85;;;;
2019/11/08 02:08:05;;;;;;;10.4;7.75;;;;;;;4.24;88.48828;94030.63;;;;
2019/11/08 02:09:06;;;;;;;10.4;7.75;;;;;;;4.24;88.48828;94030.63;;;;
2019/11/08 02:10:07;;;;;;;10.4;7.75;;;;;;;4.24;88.48828;94030.63;;;;
2019/11/08 02:11:10;;;;;;;10.4;7.75;;;;;;;4.24;88.48828;94030.63;;;;
2019/11/08 02:12:11;;;;;;;10.4;7.75;;;;;;;4.24;88.48828;94030.63;;;;
2019/11/08 02:13:13;;;;;;;10.4;7.75;;;;;;;4.24;88.48828;94030.63;;;;
2019/11/08 02:14:14;;;;;;;10.4;7.75;;;;;;;4.24;88.48828;94030.63;;;;
2019/11/08 02:15:15;;;;;;;10.4;7.75;;;;;;;4.24;88.48828;94030.63;;;;
2019/11/08 02:21:25;;;;;;;9.249999;7.45;;;;;;;3.98;88.85547;94009.52;;;;
2019/11/08 02:22:26;;;;;;;9.249999;7.45;;;;;;;3.98;88.85547;94009.52;;;;
2019/11/08 02:23:27;;;;;;;9.249999;7.45;;;;;;;3.98;88.85547;94009.52;;;;
2019/11/08 02:24:29;;;;;;;9.249999;7.45;;;;;;;3.98;88.85547;94009.52;;;;
2019/11/08 02:25:30;;;;;;;9.249999;7.45;;;;;;;3.98;88.85547;94009.52;;;;
2019/11/08 02:26:31;;;;;;;9.249999;7.45;;;;;;;3.98;88.85547;94009.52;;;;
2019/11/08 02:27:32;;;;;;;9.249999;7.45;;;;;;;3.98;88.85547;94009.52;;;;
2019/11/08 02:28:34;;;;;;;9.249999;7.45;;;;;;;3.98;88.85547;94009.52;;;;
2019/11/08 02:29:35;;;;;;;12.45;8.299999;;;;;;;3.69;88.97559;93986.7;;;;
2019/11/08 02:30:36;;;;;;;12.45;8.299999;;;;;;;3.69;88.97559;93986.7;;;;
2019/11/08 02:31:37;;;;;;;12.45;8.299999;;;;;;;3.69;88.97559;93986.7;;;;
2019/11/08 02:32:38;;;;;;;12.45;8.299999;;;;;;;3.69;88.97559;93986.7;;;;
2019/11/08 02:33:39;;;;;;;12.45;8.299999;;;;;;;3.69;88.97559;93986.7;;;;
2019/11/08 02:34:41;;;;;;;12.45;8.299999;;;;;;;3.69;88.97559;93986.7;;;;
2019/11/08 02:35:42;;;;;;;12.45;8.299999;;;;;;;3.69;88.97559;93986.7;;;;
2019/11/08 02:36:43;;;;;;;12.45;8.299999;;;;;;;3.69;88.97559;93986.7;;;;
2019/11/08 02:37:44;;;;;;;12.45;8.299999;;;;;;;3.69;88.97559;93986.7;;;;
2019/11/08 02:38:45;;;;;;;12.45;8.299999;;;;;;;3.69;88.97559;93986.7;;;;
2019/11/08 02:39:46;;;;;;;9.1;7.950001;;;;;;;3.49;89.38184;94011.63;;;;
2019/11/08 02:40:47;;;;;;;9.1;7.950001;;;;;;;3.49;89.38184;94011.63;;;;
2019/11/08 02:41:49;;;;;;;9.1;7.950001;;;;;;;3.49;89.38184;94011.63;;;;
2019/11/08 02:42:50;;;;;;;9.1;7.950001;;;;;;;3.49;89.38184;94011.63;;;;
2019/11/08 02:43:51;;;;;;;9.1;7.950001;;;;;;;3.49;89.38184;94011.63;;;;
2019/11/08 02:44:52;;;;;;;9.1;7.950001;;;;;;;3.49;89.38184;94011.63;;;;
2019/11/08 02:45:53;;;;;;;9.1;7.950001;;;;;;;3.49;89.38184;94011.63;;;;
2019/11/08 02:46:54;;;;;;;9.1;7.950001;;;;;;;3.49;89.38184;94011.63;;;;
2019/11/08 02:47:55;;;;;;;9.1;7.950001;;;;;;;3.49;89.38184;94011.63;;;;
2019/11/08 02:48:57;;;;;;;9.1;7.950001;;;;;;;3.49;89.38184;94011.63;;;;
2019/11/08 02:49:58;;;;;;;9.1;7.950001;;;;;;;3.49;89.38184;94011.63;;;;
2019/11/08 02:50:59;;;;;;;12.05;8.050002;;;;;;;3.23;89.48535;94019.81;;;;
2019/11/08 02:52:01;;;;;;;12.05;8.050002;;;;;;;3.23;89.48535;94019.81;;;;
2019/11/08 02:53:02;;;;;;;12.05;8.050002;;;;;;;3.23;89.48535;94019.81;;;;
2019/11/08 02:54:03;;;;;;;12.05;8.050002;;;;;;;3.23;89.48535;94019.81;;;;
2019/11/08 02:55:04;;;;;;;12.05;8.050002;;;;;;;3.23;89.48535;94019.81;;;;
2019/11/08 02:56:05;;;;;;;12.05;8.050002;;;;;;;3.23;89.48535;94019.81;;;;
2019/11/08 02:57:07;;;;;;;12.05;8.050002;;;;;;;3.23;89.48535;94019.81;;;;
2019/11/08 02:58:08;;;;;;;12.05;8.050002;;;;;;;3.23;89.48535;94019.81;;;;
2019/11/08 02:59:10;;;;;;;12.05;8.050002;;;;;;;3.23;89.48535;94019.81;;;;
2019/11/08 03:00:11;;;;;;;12.05;8.050002;;;;;;;3.23;89.48535;94019.81;;;;
2019/11/08 03:01:12;;;;;;;11.85;8.099998;;;;;;;3.14;89.89551;94008.32;;;;
2019/11/08 03:02:13;;;;;;;11.85;8.099998;;;;;;;3.14;89.89551;94008.32;;;;
2019/11/08 03:03:14;;;;;;;11.85;8.099998;;;;;;;3.14;89.89551;94008.32;;;;
2019/11/08 03:04:16;;;;;;;11.85;8.099998;;;;;;;3.14;89.89551;94008.32;;;;
2019/11/08 03:05:17;;;;;;;11.85;8.099998;;;;;;;3.14;89.89551;94008.32;;;;
2019/11/08 03:06:18;;;;;;;11.85;8.099998;;;;;;;3.14;89.89551;94008.32;;;;
2019/11/08 03:07:19;;;;;;;11.85;8.099998;;;;;;;3.14;89.89551;94008.32;;;;
2019/11/08 03:08:20;;;;;;;11.85;8.099998;;;;;;;3.14;89.89551;94008.32;;;;
2019/11/08 03:09:21;;;;;;;11.85;8.099998;;;;;;;3.14;89.89551;94008.32;;;;
2019/11/08 03:10:23;;;;;;;11.85;8.099998;;;;;;;3.14;89.89551;94008.32;;;;
2019/11/08 03:11:24;;;;;;;9.35;7.200001;;;;;;;3.03;89.99902;94004.13;;;;
2019/11/08 03:12:25;;;;;;;9.35;7.200001;;;;;;;3.03;89.99902;94004.13;;;;
2019/11/08 03:13:26;;;;;;;9.35;7.200001;;;;;;;3.03;89.99902;94004.13;;;;
2019/11/08 03:14:27;;;;;;;9.35;7.200001;;;;;;;3.03;89.99902;94004.13;;;;
2019/11/08 03:15:28;;;;;;;9.35;7.200001;;;;;;;3.03;89.99902;94004.13;;;;
2019/11/08 03:16:30;;;;;;;9.35;7.200001;;;;;;;3.03;89.99902;94004.13;;;;
2019/11/08 03:17:31;;;;;;;9.35;7.200001;;;;;;;3.03;89.99902;94004.13;;;;
2019/11/08 03:18:32;;;;;;;9.35;7.200001;;;;;;;3.03;89.99902;94004.13;;;;
2019/11/08 03:19:33;;;;;;;9.35;7.200001;;;;;;;3.03;89.99902;94004.13;;;;
2019/11/08 03:20:34;;;;;;;9.35;7.200001;;;;;;;3.03;89.99902;94004.13;;;;
2019/11/08 03:21:35;;;;;;;9.35;7.200001;;;;;;;3.03;89.99902;94004.13;;;;
2019/11/08 03:22:37;;;;;;;9.100002;7.1;;;;;;;3.01;90.00781;93983.03;;;;
2019/11/08 03:23:55;;;;;;;9.100002;7.1;;;;;;;3.01;90.00781;93983.03;;;;
2019/11/08 03:24:56;;;;;;;9.100002;7.1;;;;;;;3.01;90.00781;93983.03;;;;
2019/11/08 03:25:57;;;;;;;9.100002;7.1;;;;;;;3.01;90.00781;93983.03;;;;
2019/11/08 03:26:58;;;;;;;9.100002;7.1;;;;;;;3.01;90.00781;93983.03;;;;
2019/11/08 03:27:59;;;;;;;9.100002;7.1;;;;;;;3.01;90.00781;93983.03;;;;
2019/11/08 03:29:04;;;;;;;9.100002;7.1;;;;;;;3.01;90.00781;93983.03;;;;
2019/11/08 03:30:05;;;;;;;9.100002;7.1;;;;;;;3.01;90.00781;93983.03;;;;
2019/11/08 03:31:06;;;;;;;9.100002;7.1;;;;;;;3.01;90.00781;93983.03;;;;
2019/11/08 03:32:07;;;;;;;9.100002;7.1;;;;;;;3.01;90.00781;93983.03;;;;
2019/11/08 03:33:09;;;;;;;10.45;7.400001;;;;;;;2.95;89.9209;93962.16;;;;
2019/11/08 03:34:10;;;;;;;10.45;7.400001;;;;;;;2.95;89.9209;93962.16;;;;
2019/11/08 03:35:11;;;;;;;10.45;7.400001;;;;;;;2.95;89.9209;93962.16;;;;
2019/11/08 03:36:13;;;;;;;10.45;7.400001;;;;;;;2.95;89.9209;93962.16;;;;
2019/11/08 03:37:14;;;;;;;10.45;7.400001;;;;;;;2.95;89.9209;93962.16;;;;
2019/11/08 03:38:15;;;;;;;10.45;7.400001;;;;;;;2.95;89.9209;93962.16;;;;
2019/11/08 03:39:16;;;;;;;10.45;7.400001;;;;;;;2.95;89.9209;93962.16;;;;
2019/11/08 03:40:17;;;;;;;10.45;7.400001;;;;;;;2.95;89.9209;93962.16;;;;
2019/11/08 03:41:19;;;;;;;10.45;7.400001;;;;;;;2.95;89.9209;93962.16;;;;
2019/11/08 03:42:20;;;;;;;10.45;7.400001;;;;;;;2.95;89.9209;93962.16;;;;
2019/11/08 03:43:22;;;;;;;12.35;7.450001;;;;;;;2.97;90.08105;93949.02;;;;
2019/11/08 03:44:25;;;;;;;12.35;7.450001;;;;;;;2.97;90.08105;93949.02;;;;
2019/11/08 03:45:30;;;;;;;12.35;7.450001;;;;;;;2.97;90.08105;93949.02;;;;
2019/11/08 03:46:32;;;;;;;12.35;7.450001;;;;;;;2.97;90.08105;93949.02;;;;
2019/11/08 03:47:54;;;;;;;12.35;7.450001;;;;;;;2.97;90.08105;93949.02;;;;
2019/11/08 03:49:03;;;;;;;12.35;7.450001;;;;;;;2.97;90.08105;93949.02;;;;
2019/11/08 03:50:10;;;;;;;12.35;7.450001;;;;;;;2.97;90.08105;93949.02;;;;
2019/11/08 03:51:14;;;;;;;12.35;7.450001;;;;;;;2.97;90.08105;93949.02;;;;
2019/11/08 03:52:30;;;;;;;12.35;7.450001;;;;;;;2.97;90.08105;93949.02;;;;
2019/11/08 03:53:42;;;;;;;12.35;7.450001;;;;;;;2.97;90.08105;93949.02;;;;
2019/11/08 03:54:58;;;;;;;8.4;7.000001;;;;;;;2.88;90.07422;93924.52;;;;
2019/11/08 03:56:02;;;;;;;8.4;7.000001;;;;;;;2.88;90.07422;93924.52;;;;
2019/11/08 03:57:04;;;;;;;8.4;7.000001;;;;;;;2.88;90.07422;93924.52;;;;
2019/11/08 03:58:11;;;;;;;8.4;7.000001;;;;;;;2.88;90.07422;93924.52;;;;
2019/11/08 03:59:25;;;;;;;8.4;7.000001;;;;;;;2.88;90.07422;93924.52;;;;
2019/11/08 04:00:29;;;;;;;8.4;7.000001;;;;;;;2.88;90.07422;93924.52;;;;
2019/11/08 04:01:32;;;;;;;8.4;7.000001;;;;;;;2.88;90.07422;93924.52;;;;
2019/11/08 04:02:34;;;;;;;8.4;7.000001;;;;;;;2.88;90.07422;93924.52;;;;
2019/11/08 04:03:35;;;;;;;8.4;7.000001;;;;;;;2.88;90.07422;93924.52;;;;
2019/11/08 04:04:36;;;;;;;9.9;7.5;;;;;;;2.91;90.54883;93924.61;;;;
2019/11/08 04:05:37;;;;;;;9.9;7.5;;;;;;;2.91;90.54883;93924.61;;;;
2019/11/08 04:06:38;;;;;;;9.9;7.5;;;;;;;2.91;90.54883;93924.61;;;;
2019/11/08 04:07:39;;;;;;;9.9;7.5;;;;;;;2.91;90.54883;93924.61;;;;
2019/11/08 04:08:41;;;;;;;9.9;7.5;;;;;;;2.91;90.54883;93924.61;;;;
2019/11/08 04:09:42;;;;;;;9.9;7.5;;;;;;;2.91;90.54883;93924.61;;;;
2019/11/08 04:10:43;;;;;;;9.9;7.5;;;;;;;2.91;90.54883;93924.61;;;;
2019/11/08 04:11:44;;;;;;;9.9;7.5;;;;;;;2.91;90.54883;93924.61;;;;
2019/11/08 04:12:45;;;;;;;9.9;7.5;;;;;;;2.91;90.54883;93924.61;;;;
2019/11/08 04:13:46;;;;;;;9.9;7.5;;;;;;;2.91;90.54883;93924.61;;;;
2019/11/08 04:14:48;;;;;;;9.9;7.5;;;;;;;2.91;90.54883;93924.61;;;;
2019/11/08 04:15:49;;;;;;;12.35;8.25;;;;;;;2.85;90.73535;93910.83;;;;
2019/11/08 04:16:50;;;;;;;12.35;8.25;;;;;;;2.85;90.73535;93910.83;;;;
2019/11/08 04:17:51;;;;;;;12.35;8.25;;;;;;;2.85;90.73535;93910.83;;;;
2019/11/08 04:18:52;;;;;;;12.35;8.25;;;;;;;2.85;90.73535;93910.83;;;;
2019/11/08 04:19:53;;;;;;;12.35;8.25;;;;;;;2.85;90.73535;93910.83;;;;
2019/11/08 04:20:55;;;;;;;12.35;8.25;;;;;;;2.85;90.73535;93910.83;;;;
2019/11/08 04:21:56;;;;;;;12.35;8.25;;;;;;;2.85;90.73535;93910.83;;;;
2019/11/08 04:22:57;;;;;;;12.35;8.25;;;;;;;2.85;90.73535;93910.83;;;;
2019/11/08 04:23:58;;;;;;;12.35;8.25;;;;;;;2.85;90.73535;93910.83;;;;
2019/11/08 04:25:02;;;;;;;12.35;8.25;;;;;;;2.85;90.73535;93910.83;;;;
2019/11/08 04:26:04;;;;;;;11.2;9.000002;;;;;;;2.85;90.94531;93852.19;;;;
2019/11/08 04:27:11;;;;;;;11.2;9.000002;;;;;;;2.85;90.94531;93852.19;;;;
2019/11/08 04:28:17;;;;;;;11.2;9.000002;;;;;;;2.85;90.94531;93852.19;;;;
2019/11/08 04:29:50;;;;;;;11.2;9.000002;;;;;;;2.85;90.94531;93852.19;;;;
2019/11/08 04:30:51;;;;;;;11.2;9.000002;;;;;;;2.85;90.94531;93852.19;;;;
2019/11/08 04:31:53;;;;;;;11.2;9.000002;;;;;;;2.85;90.94531;93852.19;;;;
2019/11/08 04:33:02;;;;;;;11.2;9.000002;;;;;;;2.85;90.94531;93852.19;;;;
2019/11/08 04:34:04;;;;;;;11.2;9.000002;;;;;;;2.85;90.94531;93852.19;;;;
2019/11/08 04:35:07;;;;;;;11.2;9.000002;;;;;;;2.85;90.94531;93852.19;;;;
2019/11/08 04:36:10;;;;;;;11.2;9.000002;;;;;;;2.85;90.94531;93852.19;;;;
2019/11/08 04:37:15;;;;;;;18.8;13.1;;;;;;;3.02;91.00195;93857.62;;;;
2019/11/08 04:38:24;;;;;;;18.8;13.1;;;;;;;3.02;91.00195;93857.62;;;;
2019/11/08 04:39:27;;;;;;;18.8;13.1;;;;;;;3.02;91.00195;93857.62;;;;
2019/11/08 04:40:28;;;;;;;18.8;13.1;;;;;;;3.02;91.00195;93857.62;;;;
2019/11/08 04:41:30;;;;;;;18.8;13.1;;;;;;;3.02;91.00195;93857.62;;;;
2019/11/08 04:42:33;;;;;;;18.8;13.1;;;;;;;3.02;91.00195;93857.62;;;;
2019/11/08 04:43:37;;;;;;;18.8;13.1;;;;;;;3.02;91.00195;93857.62;;;;
2019/11/08 04:44:40;;;;;;;18.8;13.1;;;;;;;3.02;91.00195;93857.62;;;;
2019/11/08 04:45:43;;;;;;;18.8;13.1;;;;;;;3.02;91.00195;93857.62;;;;
2019/11/08 04:46:44;;;;;;;18.8;13.1;;;;;;;3.02;91.00195;93857.62;;;;
2019/11/08 04:47:45;;;;;;;20.35;15.25;;;;;;;3.48;91.08887;93899.16;;;;
2019/11/08 04:48:47;;;;;;;20.35;15.25;;;;;;;3.48;91.08887;93899.16;;;;
2019/11/08 04:49:48;;;;;;;20.35;15.25;;;;;;;3.48;91.08887;93899.16;;;;
2019/11/08 04:50:50;;;;;;;20.35;15.25;;;;;;;3.48;91.08887;93899.16;;;;
2019/11/08 04:51:51;;;;;;;20.35;15.25;;;;;;;3.48;91.08887;93899.16;;;;
2019/11/08 04:52:52;;;;;;;20.35;15.25;;;;;;;3.48;91.08887;93899.16;;;;
2019/11/08 04:53:53;;;;;;;20.35;15.25;;;;;;;3.48;91.08887;93899.16;;;;
2019/11/08 04:54:54;;;;;;;20.35;15.25;;;;;;;3.48;91.08887;93899.16;;;;
2019/11/08 04:55:55;;;;;;;20.35;15.25;;;;;;;3.48;91.08887;93899.16;;;;
2019/11/08 04:56:56;;;;;;;20.35;15.25;;;;;;;3.48;91.08887;93899.16;;;;
2019/11/08 04:57:57;;;;;;;20.4;15.15;;;;;;;3.87;90.97168;93837.67;;;;
2019/11/08 04:58:59;;;;;;;20.4;15.15;;;;;;;3.87;90.97168;93837.67;;;;
2019/11/08 05:00:00;;;;;;;20.4;15.15;;;;;;;3.87;90.97168;93837.67;;;;
2019/11/08 05:01:01;;;;;;;20.4;15.15;;;;;;;3.87;90.97168;93837.67;;;;
2019/11/08 05:02:03;;;;;;;20.4;15.15;;;;;;;3.87;90.97168;93837.67;;;;
2019/11/08 05:03:04;;;;;;;20.4;15.15;;;;;;;3.87;90.97168;93837.67;;;;
2019/11/08 05:04:05;;;;;;;20.4;15.15;;;;;;;3.87;90.97168;93837.67;;;;
2019/11/08 05:05:06;;;;;;;20.4;15.15;;;;;;;3.87;90.97168;93837.67;;;;
2019/11/08 05:06:08;;;;;;;20.4;15.15;;;;;;;3.87;90.97168;93837.67;;;;
2019/11/08 05:07:09;;;;;;;20.4;15.15;;;;;;;3.87;90.97168;93837.67;;;;
2019/11/08 05:08:10;;;;;;;20.05;16.35;;;;;;;4.21;91.11621;93821.41;;;;
2019/11/08 05:09:11;;;;;;;20.05;16.35;;;;;;;4.21;91.11621;93821.41;;;;
2019/11/08 05:10:12;;;;;;;20.05;16.35;;;;;;;4.21;91.11621;93821.41;;;;
2019/11/08 05:11:13;;;;;;;20.05;16.35;;;;;;;4.21;91.11621;93821.41;;;;
2019/11/08 05:12:14;;;;;;;20.05;16.35;;;;;;;4.21;91.11621;93821.41;;;;
2019/11/08 05:13:15;;;;;;;20.05;16.35;;;;;;;4.21;91.11621;93821.41;;;;
2019/11/08 05:14:17;;;;;;;20.05;16.35;;;;;;;4.21;91.11621;93821.41;;;;
2019/11/08 05:15:18;;;;;;;20.05;16.35;;;;;;;4.21;91.11621;93821.41;;;;
2019/11/08 05:16:19;;;;;;;20.05;16.35;;;;;;;4.21;91.11621;93821.41;;;;
2019/11/08 05:17:20;;;;;;;20.05;16.35;;;;;;;4.21;91.11621;93821.41;;;;
2019/11/08 05:18:21;;;;;;;20.05;16.35;;;;;;;4.21;91.11621;93821.41;;;;
2019/11/08 05:19:22;;;;;;;24.6;19.05;;;;;;;4.41;91.28613;93828.52;;;;
2019/11/08 05:20:23;;;;;;;24.6;19.05;;;;;;;4.41;91.28613;93828.52;;;;
2019/11/08 05:21:25;;;;;;;24.6;19.05;;;;;;;4.41;91.28613;93828.52;;;;
2019/11/08 05:22:26;;;;;;;24.6;19.05;;;;;;;4.41;91.28613;93828.52;;;;
2019/11/08 05:23:27;;;;;;;24.6;19.05;;;;;;;4.41;91.28613;93828.52;;;;
2019/11/08 05:24:28;;;;;;;24.6;19.05;;;;;;;4.41;91.28613;93828.52;;;;
2019/11/08 05:25:29;;;;;;;24.6;19.05;;;;;;;4.41;91.28613;93828.52;;;;
2019/11/08 05:26:30;;;;;;;24.6;19.05;;;;;;;4.41;91.28613;93828.52;;;;
2019/11/08 05:27:32;;;;;;;24.6;19.05;;;;;;;4.41;91.28613;93828.52;;;;
2019/11/08 05:28:33;;;;;;;24.6;19.05;;;;;;;4.41;91.28613;93828.52;;;;
2019/11/08 05:29:34;;;;;;;24.5;18.5;;;;;;;4.66;91.49512;93804.49;;;;
2019/11/08 05:30:35;;;;;;;24.5;18.5;;;;;;;4.66;91.49512;93804.49;;;;
2019/11/08 05:31:36;;;;;;;24.5;18.5;;;;;;;4.66;91.49512;93804.49;;;;
2019/11/08 05:32:37;;;;;;;24.5;18.5;;;;;;;4.66;91.49512;93804.49;;;;
2019/11/08 05:33:39;;;;;;;24.5;18.5;;;;;;;4.66;91.49512;93804.49;;;;
2019/11/08 05:34:40;;;;;;;24.5;18.5;;;;;;;4.66;91.49512;93804.49;;;;
2019/11/08 05:35:41;;;;;;;24.5;18.5;;;;;;;4.66;91.49512;93804.49;;;;
2019/11/08 05:36:42;;;;;;;24.5;18.5;;;;;;;4.66;91.49512;93804.49;;;;
2019/11/08 05:37:43;;;;;;;24.5;18.5;;;;;;;4.66;91.49512;93804.49;;;;
2019/11/08 05:38:44;;;;;;;24.5;18.5;;;;;;;4.66;91.49512;93804.49;;;;
2019/11/08 05:39:45;;;;;;;24.5;18.5;;;;;;;4.66;91.49512;93804.49;;;;
2019/11/08 05:40:46;;;;;;;23.75;19;;;;;;;4.82;91.67676;93823.39;;;;
2019/11/08 05:41:47;;;;;;;23.75;19;;;;;;;4.82;91.67676;93823.39;;;;
2019/11/08 05:42:49;;;;;;;23.75;19;;;;;;;4.82;91.67676;93823.39;;;;
2019/11/08 05:43:50;;;;;;;23.75;19;;;;;;;4.82;91.67676;93823.39;;;;
2019/11/08 05:44:51;;;;;;;23.75;19;;;;;;;4.82;91.67676;93823.39;;;;
2019/11/08 05:45:52;;;;;;;23.75;19;;;;;;;4.82;91.67676;93823.39;;;;
2019/11/08 05:46:53;;;;;;;23.75;19;;;;;;;4.82;91.67676;93823.39;;;;
2019/11/08 05:47:54;;;;;;;23.75;19;;;;;;;4.82;91.67676;93823.39;;;;
2019/11/08 05:48:56;;;;;;;23.75;19;;;;;;;4.82;91.67676;93823.39;;;;
2019/11/08 05:49:57;;;;;;;23.75;19;;;;;;;4.82;91.67676;93823.39;;;;